KCVX

Details ICAO KCVX (CVX)
Name CHARLEVOIX MUNI
Region United States
Timezone America/Detroit (UTC-4.0)
Plans Departing 2
Arriving 6
Stats Elevation 669 ft / 204 m (AMSL)
Location 45.304804° -85.273204°
Runways 2
Magnetic Variation 6.494° W
Sunrise 2018-05-26 10:01:58 UTC / 2018-05-26 06:01:58 Local
Sunset 2018-05-27 01:17:14 UTC / 2018-05-26 21:17:14 Local
Advertisement - Login to hide

Runways

ID Width Length Bearing (true) Bearing (mag) Surface Threshold Offset Overrun Length
04 200 ft / 61 m 1,278 ft / 390 m 45.47° 51.96° Grass 0 ft / 0 m 0 ft / 0 m
09 75 ft / 23 m 4,538 ft / 1,383 m 84.59° 91.08° Asphalt 0 ft / 0 m 0 ft / 0 m
22 200 ft / 61 m 1,278 ft / 390 m 225.47° 231.96° Grass 0 ft / 0 m 0 ft / 0 m
27 75 ft / 23 m 4,538 ft / 1,383 m 264.60° 271.09° Asphalt 0 ft / 0 m 0 ft / 0 m

Map

Weather


0- 5 10 15 20 25 30 35+ Temperature / ° C

Clouds and Precipitation
Forecast for 2018-05-26 12:00 UTC. Updated 5 hours ago

Ground ~20,000 ft ~40,000 ft Winds

METAR

KCVX 261555Z AUTO 27005KT 10SM CLR 24/17 A2979 RMK AO2 T02410166

TAF

Not found

Frequencies

Recorded 120.00 MHz AWOS 3
Unicom 122.80 MHz CTAF/UNICOM
Warning: Do not use this data for real-world aviation or navigation. No guarantee of current accuracy is given.